Time;durP1;ratioP1;P1;durP2;ratioP2;P2;SDS_P1;SDS_P2;PMS_P1;PMS_P2;Temp;Humidity;BMP_temperature;BMP_pressure;BME280_temperature;BME280_humidity;BME280_pressure;Samples;Min_cycle;Max_cycle;Signal;HPM_P1;HPM_P2
2023/01/15 00:01:30;;;;;;;;;45.00;34.50;25.90;44.90;;;;;;112293;1243;56349;-67
2023/01/15 00:03:58;;;;;;;;;43.00;35.75;25.90;44.70;;;;;;112286;1247;56727;-67
2023/01/15 00:06:27;;;;;;;;;41.00;33.25;25.90;44.70;;;;;;112316;1247;49528;-67
2023/01/15 00:08:54;;;;;;;;;43.00;34.00;25.80;44.60;;;;;;112307;1247;49602;-67
2023/01/15 00:11:22;;;;;;;;;40.00;33.33;25.80;44.50;;;;;;112318;1247;46346;-67
2023/01/15 00:13:49;;;;;;;;;43.67;35.33;25.80;44.50;;;;;;112315;1247;55984;-67
2023/01/15 00:16:18;;;;;;;;;39.25;34.25;25.80;44.40;;;;;;112284;1247;55835;-67
2023/01/15 00:18:53;;;;;;;;;48.67;37.00;25.80;44.40;;;;;;112274;1247;50600;-67
2023/01/15 00:21:20;;;;;;;;;40.33;34.00;25.80;44.40;;;;;;111849;1247;587077;-67
2023/01/15 00:29:20;;;;;;;;;47.00;38.00;25.70;44.30;;;;;;112303;1244;56728;-66
2023/01/15 00:32:07;;;;;;;;;40.25;34.75;25.70;44.30;;;;;;112288;1247;49037;-67
2023/01/15 00:34:34;;;;;;;;;45.50;35.50;25.70;44.50;;;;;;112311;1247;48834;-67
2023/01/15 00:37:01;;;;;;;;;46.00;35.00;25.70;44.20;;;;;;112309;1247;45348;-66
2023/01/15 00:39:28;;;;;;;;;42.00;34.00;25.60;44.10;;;;;;112316;1244;56445;-67
2023/01/15 00:41:55;;;;;;;;;45.75;36.75;25.60;44.10;;;;;;112301;1245;56359;-67
2023/01/15 00:44:22;;;;;;;;;43.33;35.67;25.60;44.10;;;;;;112292;1247;49560;-67
2023/01/15 00:46:49;;;;;;;;;41.00;34.00;25.60;44.10;;;;;;112297;1247;49775;-67
2023/01/15 00:49:16;;;;;;;;;41.75;34.50;25.60;44.10;;;;;;112311;1243;45721;-66
2023/01/15 00:51:43;;;;;;;;;40.75;34.25;25.50;44.00;;;;;;112323;1247;57209;-67
2023/01/15 00:54:10;;;;;;;;;46.25;34.50;25.50;44.00;;;;;;112309;1247;56062;-66
2023/01/15 00:56:37;;;;;;;;;42.50;35.50;25.50;44.00;;;;;;112290;1247;49428;-67
2023/01/15 00:59:04;;;;;;;;;43.50;34.00;25.50;44.00;;;;;;112289;1247;48950;-66
2023/01/15 01:01:32;;;;;;;;;41.75;34.75;25.50;44.10;;;;;;112296;1244;46215;-66
2023/01/15 01:03:59;;;;;;;;;40.00;33.33;25.50;44.50;;;;;;112303;1247;56405;-66
2023/01/15 01:06:26;;;;;;;;;40.00;33.25;25.50;44.00;;;;;;112318;1247;56108;-66
2023/01/15 01:08:54;;;;;;;;;46.00;35.00;25.40;43.90;;;;;;112314;1247;50311;-66
2023/01/15 01:11:25;;;;;;;;;44.33;37.00;25.50;44.00;;;;;;112298;1247;49088;-66
2023/01/15 01:13:53;;;;;;;;;44.00;35.00;25.40;43.90;;;;;;112298;1247;45329;-66
2023/01/15 01:16:36;;;;;;;;;36.50;32.25;25.40;43.90;;;;;;112287;1247;56854;-66
2023/01/15 01:19:09;;;;;;;;;42.00;33.00;25.40;43.90;;;;;;112281;1247;56851;-66
2023/01/15 01:21:37;;;;;;;;;44.67;35.67;25.40;43.90;;;;;;112286;1247;49025;-66
2023/01/15 01:24:05;;;;;;;;;45.00;34.00;25.40;43.90;;;;;;112260;1247;49155;-66
2023/01/15 01:26:33;;;;;;;;;41.00;34.00;25.40;43.80;;;;;;112293;1245;46564;-66
2023/01/15 01:29:00;;;;;;;;;45.25;35.50;25.40;43.80;;;;;;112344;1247;56114;-66
2023/01/15 01:31:27;;;;;;;;;37.00;32.67;25.40;43.80;;;;;;112310;1247;55935;-67
2023/01/15 01:33:56;;;;;;;;;38.75;32.75;25.30;43.70;;;;;;112291;1244;49418;-67
2023/01/15 01:36:28;;;;;;;;;44.50;35.75;25.30;43.70;;;;;;112302;1247;49312;-66
2023/01/15 01:38:55;;;;;;;;;40.75;34.75;25.30;43.70;;;;;;112300;1247;45517;-66
2023/01/15 01:41:22;;;;;;;;;43.75;36.25;25.30;43.70;;;;;;112308;1247;57114;-66
2023/01/15 01:43:55;;;;;;;;;43.25;36.25;25.30;43.70;;;;;;112280;1247;56604;-66
2023/01/15 01:46:23;;;;;;;;;45.75;37.25;25.30;43.70;;;;;;112281;1247;48954;-66
2023/01/15 01:48:54;;;;;;;;;42.50;31.25;25.30;43.60;;;;;;112275;1244;49638;-65
2023/01/15 01:51:24;;;;;;;;;43.33;36.00;25.30;43.60;;;;;;112284;1243;45370;-66
2023/01/15 01:53:51;;;;;;;;;37.00;31.25;25.30;43.60;;;;;;112280;1247;57301;-67
2023/01/15 01:56:19;;;;;;;;;35.25;31.50;25.30;43.50;;;;;;112294;1247;56423;-65
2023/01/15 01:58:49;;;;;;;;;41.25;32.50;25.30;43.60;;;;;;112314;1244;48858;-66
2023/01/15 02:01:16;;;;;;;;;36.33;33.00;25.30;43.60;;;;;;112320;1247;49887;-66
2023/01/15 02:03:43;;;;;;;;;41.33;33.67;25.30;43.60;;;;;;112309;1244;45589;-65
2023/01/15 02:06:12;;;;;;;;;40.33;33.33;25.20;43.50;;;;;;112177;1244;57137;-65
2023/01/15 02:08:39;;;;;;;;;39.50;32.00;25.20;43.50;;;;;;112222;1244;56070;-65
2023/01/15 02:11:07;;;;;;;;;35.25;31.00;25.20;43.50;;;;;;112171;1245;49802;-66
2023/01/15 02:13:49;;;;;;;;;36.25;32.00;25.20;43.50;;;;;;112184;1243;50895;-65
2023/01/15 02:16:23;;;;;;;;;42.00;34.33;25.20;43.50;;;;;;112260;1244;45616;-66
2023/01/15 02:18:59;;;;;;;;;38.50;31.00;25.20;43.50;;;;;;112299;1244;56241;-66
2023/01/15 02:21:35;;;;;;;;;41.00;33.00;25.20;43.50;;;;;;112181;1244;55845;-66
2023/01/15 02:24:09;;;;;;;;;37.25;32.00;25.20;43.50;;;;;;112286;1244;50657;-66
2023/01/15 02:27:03;;;;;;;;;43.25;33.75;25.20;43.40;;;;;;112198;1249;49896;-66
2023/01/15 02:29:50;;;;;;;;;37.50;31.50;25.20;43.40;;;;;;112309;1243;45300;-66
2023/01/15 02:32:35;;;;;;;;;35.67;31.00;25.20;43.40;;;;;;112332;1247;55643;-65
2023/01/15 02:35:09;;;;;;;;;37.00;31.00;25.20;43.40;;;;;;112342;1247;55460;-65
2023/01/15 02:37:38;;;;;;;;;38.00;32.50;25.20;43.60;;;;;;112336;1247;49565;-65
2023/01/15 02:40:07;;;;;;;;;31.75;28.75;25.10;43.30;;;;;;112345;1247;49280;-65
2023/01/15 02:42:35;;;;;;;;;33.75;28.75;25.10;43.30;;;;;;112226;1244;45485;-65
2023/01/15 02:45:05;;;;;;;;;35.25;31.75;25.10;43.50;;;;;;112211;1247;57169;-65
2023/01/15 02:47:34;;;;;;;;;36.50;30.00;25.10;43.30;;;;;;112311;1247;56161;-65
2023/01/15 02:50:05;;;;;;;;;34.00;30.25;25.10;43.30;;;;;;112299;1243;49236;-66
2023/01/15 02:52:37;;;;;;;;;34.50;31.50;25.10;43.30;;;;;;112216;1248;49155;-66
2023/01/15 02:55:08;;;;;;;;;31.33;29.67;25.10;43.30;;;;;;112322;1247;45525;-66
2023/01/15 02:57:37;;;;;;;;;35.50;31.75;25.10;43.30;;;;;;112235;1247;56021;-66
2023/01/15 03:00:08;;;;;;;;;36.00;30.00;25.10;43.30;;;;;;112316;1247;56188;-66
2023/01/15 03:02:40;;;;;;;;;37.00;34.00;25.10;43.20;;;;;;112326;1247;49710;-66
2023/01/15 03:05:11;;;;;;;;;35.25;31.00;25.00;43.20;;;;;;112323;1247;49129;-65
2023/01/15 03:07:54;;;;;;;;;33.75;29.75;25.00;43.20;;;;;;112208;1248;45482;-67
2023/01/15 03:10:32;;;;;;;;;34.25;31.00;25.00;43.20;;;;;;112293;1244;56529;-67
2023/01/15 03:13:01;;;;;;;;;33.00;30.50;25.00;43.20;;;;;;112283;1247;55944;-66
2023/01/15 03:19:22;;;;;;;;;32.25;29.00;25.00;43.10;;;;;;112232;1247;49963;-66
2023/01/15 03:21:57;;;;;;;;;32.00;28.50;25.00;43.10;;;;;;112380;1247;46073;-66
2023/01/15 03:24:52;;;;;;;;;35.50;30.75;25.00;43.00;;;;;;112336;1244;57089;-66
2023/01/15 03:27:20;;;;;;;;;29.00;27.75;25.00;43.00;;;;;;112247;1247;55643;-66
2023/01/15 03:29:50;;;;;;;;;32.25;28.75;25.00;42.90;;;;;;112354;1244;49246;-66
2023/01/15 03:32:18;;;;;;;;;32.67;29.33;25.00;42.90;;;;;;112241;1249;49916;-66
2023/01/15 03:34:49;;;;;;;;;32.67;29.00;25.00;42.90;;;;;;112275;1244;46447;-66
2023/01/15 03:37:18;;;;;;;;;31.25;28.75;24.90;42.90;;;;;;112237;1248;56777;-67
2023/01/15 03:39:46;;;;;;;;;33.75;29.50;24.90;42.90;;;;;;112358;1244;56643;-67
2023/01/15 03:42:44;;;;;;;;;31.75;29.00;24.90;42.90;;;;;;112340;1243;49113;-66
2023/01/15 03:45:17;;;;;;;;;30.00;28.00;24.90;42.90;;;;;;112318;1247;49232;-67
2023/01/15 03:48:01;;;;;;;;;31.25;28.00;24.90;42.90;;;;;;112295;1247;45262;-66
2023/01/15 03:50:42;;;;;;;;;32.00;28.25;24.90;42.90;;;;;;112214;1247;56113;-66
2023/01/15 03:53:16;;;;;;;;;34.33;32.00;24.90;42.90;;;;;;112317;1247;56818;-67
2023/01/15 03:55:54;;;;;;;;;29.67;28.33;24.90;42.90;;;;;;112315;1244;49705;-66
2023/01/15 03:58:43;;;;;;;;;35.00;30.00;24.90;42.80;;;;;;112333;1247;49707;-67
2023/01/15 04:01:13;;;;;;;;;29.75;26.25;24.90;42.80;;;;;;112331;1243;46267;-66
2023/01/15 04:03:41;;;;;;;;;25.50;22.00;24.90;42.80;;;;;;112361;1245;56178;-65
2023/01/15 04:06:08;;;;;;;;;30.50;27.50;24.90;42.80;;;;;;112328;1247;56180;-66
2023/01/15 04:08:38;;;;;;;;;34.00;28.75;24.90;42.70;;;;;;112223;1250;48965;-65
2023/01/15 04:11:05;;;;;;;;;32.00;29.50;24.90;42.80;;;;;;112231;1245;49781;-66
2023/01/15 04:13:32;;;;;;;;;29.00;28.00;24.90;42.80;;;;;;112307;1244;45985;-65
2023/01/15 04:15:59;;;;;;;;;31.00;26.67;24.80;42.70;;;;;;112317;1247;57299;-65
2023/01/15 04:18:26;;;;;;;;;30.50;26.50;24.90;42.90;;;;;;112278;1247;55668;-65
2023/01/15 04:20:54;;;;;;;;;29.67;24.00;24.80;42.70;;;;;;112308;1243;49316;-65
2023/01/15 04:23:22;;;;;;;;;34.67;28.67;24.80;42.70;;;;;;112362;1247;49373;-66
2023/01/15 04:25:49;;;;;;;;;29.00;25.50;24.80;43.00;;;;;;112336;1247;45645;-66
2023/01/15 04:28:16;;;;;;;;;26.00;23.25;24.80;42.80;;;;;;112341;1247;55747;-66
2023/01/15 04:30:43;;;;;;;;;27.50;26.25;24.80;42.80;;;;;;112379;1247;56063;-65
2023/01/15 04:33:10;;;;;;;;;33.50;29.00;24.80;42.80;;;;;;112349;1244;49614;-66
2023/01/15 04:35:37;;;;;;;;;30.33;24.67;24.80;42.80;;;;;;112359;1244;50016;-66
2023/01/15 04:38:04;;;;;;;;;27.75;25.75;24.80;42.80;;;;;;112355;1247;45560;-66
2023/01/15 04:46:02;;;;;;;;;29.00;26.00;24.70;42.80;;;;;;112314;1244;50410;-66
2023/01/15 04:48:30;;;;;;;;;27.50;24.00;24.70;42.80;;;;;;112335;1247;49053;-66
2023/01/15 04:51:02;;;;;;;;;31.33;27.00;24.70;42.80;;;;;;112325;1243;45402;-65
2023/01/15 04:53:29;;;;;;;;;28.00;26.75;24.70;43.00;;;;;;112320;1247;55722;-65
2023/01/15 04:56:01;;;;;;;;;27.25;24.50;24.70;42.80;;;;;;112293;1247;55935;-65
2023/01/15 04:58:27;;;;;;;;;30.00;25.25;24.70;42.70;;;;;;112306;1244;49490;-66
2023/01/15 05:00:55;;;;;;;;;21.75;20.00;24.70;42.70;;;;;;112311;1247;48982;-68
2023/01/15 05:03:22;;;;;;;;;27.25;25.75;24.70;42.70;;;;;;112325;1247;45592;-66
2023/01/15 05:05:49;;;;;;;;;28.00;25.00;24.60;42.60;;;;;;112323;1247;56344;-69
2023/01/15 05:08:16;;;;;;;;;27.75;23.50;24.70;42.90;;;;;;112283;1247;55971;-68
2023/01/15 05:10:43;;;;;;;;;26.00;23.00;24.70;42.90;;;;;;112314;1247;49149;-67
2023/01/15 05:13:10;;;;;;;;;23.00;19.00;24.70;42.70;;;;;;112204;1249;49828;-68
2023/01/15 05:15:39;;;;;;;;;26.50;23.75;24.70;42.80;;;;;;112300;1244;45476;-71
2023/01/15 05:18:06;;;;;;;;;28.00;25.00;24.80;42.80;;;;;;112221;1248;56278;-70
2023/01/15 05:20:36;;;;;;;;;22.50;21.00;24.80;42.70;;;;;;112282;1247;55754;-71
2023/01/15 05:23:03;;;;;;;;;28.00;26.33;24.90;42.30;;;;;;112331;1247;49347;-69
2023/01/15 05:25:30;;;;;;;;;30.00;24.50;24.90;42.90;;;;;;112298;1247;49203;-69
2023/01/15 05:27:57;;;;;;;;;24.75;21.00;25.00;42.90;;;;;;112322;1247;45905;-69
2023/01/15 05:30:24;;;;;;;;;24.00;22.00;25.10;42.90;;;;;;112298;1244;56173;-68
2023/01/15 05:32:51;;;;;;;;;24.00;22.00;25.10;42.80;;;;;;112295;1244;56171;-68
2023/01/15 05:35:18;;;;;;;;;25.00;22.00;25.10;42.90;;;;;;112290;1245;48928;-70
2023/01/15 05:37:45;;;;;;;;;29.00;25.00;25.10;42.80;;;;;;112271;1247;49597;-70
2023/01/15 05:40:12;;;;;;;;;28.50;27.50;25.20;42.60;;;;;;112321;1247;46115;-71
2023/01/15 05:42:39;;;;;;;;;20.00;19.00;25.20;42.50;;;;;;112309;1247;56052;-71
2023/01/15 05:45:07;;;;;;;;;21.50;19.00;25.20;42.60;;;;;;112164;1247;56163;-72
2023/01/15 05:47:34;;;;;;;;;29.50;25.50;25.20;42.60;;;;;;112322;1244;49357;-71
2023/01/15 05:50:01;;;;;;;;;26.25;24.25;25.20;42.60;;;;;;112305;1243;49625;-71
2023/01/15 05:52:28;;;;;;;;;26.25;24.75;25.20;42.50;;;;;;112312;1247;45191;-72
2023/01/15 05:54:55;;;;;;;;;24.67;23.00;25.20;42.50;;;;;;112315;1247;55353;-71
2023/01/15 05:57:22;;;;;;;;;29.00;25.00;25.20;42.40;;;;;;112315;1247;55799;-70
2023/01/15 05:59:49;;;;;;;;;24.33;20.67;25.20;42.60;;;;;;112177;1247;50295;-68
2023/01/15 06:02:16;;;;;;;;;24.50;22.75;25.20;42.60;;;;;;112306;1247;49086;-69
2023/01/15 06:04:43;;;;;;;;;21.33;20.33;25.20;42.70;;;;;;112305;1247;45486;-70
2023/01/15 06:07:10;;;;;;;;;23.67;21.67;25.20;42.60;;;;;;112293;1244;55761;-70
2023/01/15 06:09:37;;;;;;;;;26.33;22.00;25.20;42.20;;;;;;112304;1247;55263;-68
2023/01/15 06:12:04;;;;;;;;;23.33;20.33;25.20;42.70;;;;;;112284;1247;49316;-68
2023/01/15 06:14:31;;;;;;;;;24.00;19.00;25.20;42.70;;;;;;112320;1247;49643;-68
2023/01/15 06:16:58;;;;;;;;;23.00;20.75;25.20;42.70;;;;;;112300;1243;45751;-67
2023/01/15 06:19:24;;;;;;;;;27.33;23.00;25.10;42.70;;;;;;112308;1247;55881;-68
2023/01/15 06:21:52;;;;;;;;;23.00;21.50;25.10;42.90;;;;;;112213;1244;55753;-69
2023/01/15 06:24:19;;;;;;;;;21.67;20.00;25.10;42.90;;;;;;112176;1244;49572;-69
2023/01/15 06:26:46;;;;;;;;;27.00;23.75;25.10;43.10;;;;;;112216;1248;49585;-71
2023/01/15 06:29:17;;;;;;;;;23.67;22.67;25.10;43.10;;;;;;112107;1249;45190;-71
2023/01/15 06:31:44;;;;;;;;;24.00;22.67;25.10;43.10;;;;;;112198;1244;55996;-70
2023/01/15 06:34:11;;;;;;;;;26.75;25.75;25.10;43.10;;;;;;111945;1247;55656;-69
2023/01/15 06:36:38;;;;;;;;;21.75;20.00;25.10;43.10;;;;;;112181;1244;49249;-67
2023/01/15 06:39:05;;;;;;;;;24.25;21.25;25.10;43.10;;;;;;112171;1244;49944;-66
2023/01/15 06:47:21;;;;;;;;;22.33;21.00;25.10;43.10;;;;;;112188;1244;55345;-68
2023/01/15 06:49:56;;;;;;;;;21.33;19.33;25.00;43.00;;;;;;112200;1244;49125;-69
2023/01/15 06:52:29;;;;;;;;;24.67;22.33;25.00;42.70;;;;;;112189;1244;50051;-67
2023/01/15 06:54:56;;;;;;;;;34.75;28.25;25.00;43.00;;;;;;112208;1249;46307;-66
2023/01/15 06:57:24;;;;;;;;;32.33;26.00;25.00;42.50;;;;;;112216;1247;56407;-66
2023/01/15 06:59:51;;;;;;;;;46.00;32.00;25.00;42.40;;;;;;112189;1248;56113;-66
2023/01/15 07:02:18;;;;;;;;;34.00;29.00;25.00;42.30;;;;;;112172;1248;49450;-66
2023/01/15 07:04:46;;;;;;;;;35.00;29.00;24.90;42.10;;;;;;112183;1248;49544;-66
2023/01/15 07:07:18;;;;;;;;;38.00;31.67;24.90;42.10;;;;;;112206;1244;45839;-66
2023/01/15 07:09:45;;;;;;;;;45.00;31.00;24.90;41.90;;;;;;112211;1249;57395;-63
2023/01/15 07:12:12;;;;;;;;;44.25;32.75;24.90;41.80;;;;;;112198;1244;56159;-63
2023/01/15 07:14:39;;;;;;;;;33.67;27.33;24.90;42.00;;;;;;112156;1244;49632;-63
2023/01/15 07:17:06;;;;;;;;;40.00;31.25;24.90;42.30;;;;;;112205;1248;49202;-64
2023/01/15 07:19:33;;;;;;;;;39.00;28.67;24.80;42.30;;;;;;112169;1248;45446;-63
2023/01/15 07:22:00;;;;;;;;;44.25;31.75;24.90;42.50;;;;;;112179;1248;55760;-64
2023/01/15 07:24:27;;;;;;;;;45.25;32.75;24.90;42.60;;;;;;112209;1247;55363;-63
2023/01/15 07:26:54;;;;;;;;;38.50;30.00;24.90;42.60;;;;;;112237;1249;49240;-63
2023/01/15 07:29:22;;;;;;;;;37.00;30.00;24.90;42.60;;;;;;112210;1244;49080;-66
2023/01/15 07:31:49;;;;;;;;;40.75;29.00;24.90;42.60;;;;;;112191;1244;45819;-63
2023/01/15 07:34:16;;;;;;;;;35.50;30.00;24.90;42.50;;;;;;112189;1244;56365;-65
2023/01/15 07:36:43;;;;;;;;;40.50;31.75;24.90;42.70;;;;;;112195;1248;56560;-65
2023/01/15 07:39:11;;;;;;;;;36.00;29.00;24.90;42.40;;;;;;112237;1248;49545;-64
2023/01/15 07:50:10;;;;;;;;;44.00;31.00;24.80;41.40;;;;;;112302;1243;55572;-61
2023/01/15 07:52:37;;;;;;;;;35.00;30.67;24.80;41.30;;;;;;112302;1247;49346;-61
2023/01/15 07:55:07;;;;;;;;;39.00;31.00;24.80;41.30;;;;;;112279;1247;49094;-61
2023/01/15 07:57:35;;;;;;;;;33.50;31.25;24.80;41.10;;;;;;112336;1247;46180;-60
2023/01/15 08:00:04;;;;;;;;;39.00;31.00;24.80;40.90;;;;;;112194;1247;57071;-61
2023/01/15 08:02:31;;;;;;;;;38.00;29.67;24.80;41.00;;;;;;112286;1247;56410;-62
2023/01/15 08:04:58;;;;;;;;;37.00;31.00;24.70;40.60;;;;;;112236;1243;49592;-61
2023/01/15 08:07:25;;;;;;;;;32.67;30.33;24.70;40.90;;;;;;112316;1244;49153;-59
2023/01/15 08:09:52;;;;;;;;;38.75;32.50;24.70;41.00;;;;;;112295;1247;46755;-60
2023/01/15 08:15:15;;;;;;;;;31.50;29.00;24.70;41.30;;;;;;112299;1247;56490;-61
2023/01/15 08:17:49;;;;;;;;;39.75;30.50;24.80;42.40;;;;;;112296;1247;49472;-62
2023/01/15 08:20:22;;;;;;;;;32.50;28.75;24.90;42.20;;;;;;112280;1247;49346;-61
2023/01/15 08:22:49;;;;;;;;;34.00;29.33;24.90;42.10;;;;;;112293;1247;45869;-61
2023/01/15 08:25:18;;;;;;;;;34.00;28.00;25.00;41.90;;;;;;112364;1247;56288;-61
2023/01/15 08:27:46;;;;;;;;;31.67;30.00;25.00;41.60;;;;;;112310;1247;56830;-65
2023/01/15 08:30:18;;;;;;;;;37.25;31.25;25.00;41.80;;;;;;112338;1247;49784;-62
2023/01/15 08:32:45;;;;;;;;;35.00;28.00;25.10;41.40;;;;;;112306;1247;49783;-62
2023/01/15 08:35:12;;;;;;;;;33.00;28.50;25.10;41.60;;;;;;112318;1247;46109;-61
2023/01/15 08:37:41;;;;;;;;;31.00;30.00;25.10;41.50;;;;;;112274;1247;56382;-61
2023/01/15 08:40:10;;;;;;;;;31.67;28.00;25.10;41.40;;;;;;112333;1245;55719;-61
2023/01/15 08:42:37;;;;;;;;;31.33;29.00;25.10;41.40;;;;;;112316;1244;49723;-62
2023/01/15 08:45:05;;;;;;;;;35.00;30.67;25.20;41.50;;;;;;112128;1246;49682;-63
2023/01/15 08:47:32;;;;;;;;;30.00;28.00;25.20;41.60;;;;;;112268;1248;46672;-64
2023/01/15 08:49:59;;;;;;;;;32.25;29.00;25.30;41.60;;;;;;112322;1247;55904;-63
2023/01/15 08:52:26;;;;;;;;;28.50;26.00;25.30;41.70;;;;;;112277;1248;56138;-62
2023/01/15 08:54:53;;;;;;;;;34.00;28.33;25.30;41.50;;;;;;112310;1247;49867;-62
2023/01/15 08:57:20;;;;;;;;;31.67;27.33;25.30;42.10;;;;;;112311;1247;49014;-61
2023/01/15 08:59:47;;;;;;;;;35.50;31.75;25.30;41.80;;;;;;112299;1244;45462;-62
2023/01/15 09:02:14;;;;;;;;;38.25;30.75;25.40;42.00;;;;;;112317;1247;56044;-62
2023/01/15 09:04:41;;;;;;;;;33.00;26.50;25.40;42.10;;;;;;112352;1247;56228;-62
2023/01/15 09:07:08;;;;;;;;;34.00;29.00;25.50;42.30;;;;;;112286;1247;50213;-62
2023/01/15 09:09:35;;;;;;;;;32.25;28.00;25.50;42.50;;;;;;112310;1247;48992;-62
2023/01/15 09:12:02;;;;;;;;;28.00;26.67;25.50;42.50;;;;;;112316;1247;45128;-63
2023/01/15 09:14:29;;;;;;;;;27.25;26.00;25.50;41.90;;;;;;112321;1244;55745;-63
2023/01/15 09:16:56;;;;;;;;;28.00;24.00;25.50;41.30;;;;;;112326;1244;55568;-62
2023/01/15 09:19:23;;;;;;;;;29.00;25.00;25.50;39.50;;;;;;112262;1247;48921;-60
2023/01/15 09:21:50;;;;;;;;;36.50;29.00;25.50;39.80;;;;;;112331;1247;48818;-60
2023/01/15 09:24:17;;;;;;;;;28.25;25.50;25.40;39.00;;;;;;112362;1247;45184;-60
2023/01/15 09:26:44;;;;;;;;;33.50;27.25;25.30;38.60;;;;;;112317;1247;56745;-60
2023/01/15 09:29:11;;;;;;;;;30.50;27.50;25.30;38.70;;;;;;112331;1244;56593;-61
2023/01/15 09:31:38;;;;;;;;;36.50;31.00;25.30;37.80;;;;;;112308;1247;49773;-60
2023/01/15 09:34:05;;;;;;;;;37.25;30.25;25.20;37.60;;;;;;112230;1249;49677;-60
2023/01/15 09:36:33;;;;;;;;;38.33;34.33;25.20;37.70;;;;;;112323;1244;46495;-61
2023/01/15 09:39:03;;;;;;;;;37.25;31.00;25.10;37.40;;;;;;112237;1248;56300;-60
2023/01/15 09:42:05;;;;;;;;;36.00;28.00;25.10;37.40;;;;;;112220;1248;55750;-60
2023/01/15 09:45:04;;;;;;;;;35.75;28.75;25.10;37.30;;;;;;112168;1249;49438;-60
2023/01/15 09:47:49;;;;;;;;;39.75;32.25;25.00;37.00;;;;;;112081;1248;48947;-61
2023/01/15 09:50:32;;;;;;;;;36.33;31.00;25.00;36.90;;;;;;112219;1249;45540;-61
2023/01/15 09:53:02;;;;;;;;;38.50;32.50;25.00;36.90;;;;;;112230;1248;56374;-63
2023/01/15 09:55:33;;;;;;;;;33.00;29.25;24.90;36.90;;;;;;112186;1248;56306;-61
2023/01/15 09:58:03;;;;;;;;;35.00;31.00;24.90;36.80;;;;;;112112;1244;48960;-61
2023/01/15 10:00:44;;;;;;;;;36.25;31.00;24.90;36.70;;;;;;112220;1248;49571;-61
2023/01/15 10:03:33;;;;;;;;;33.33;29.67;24.80;36.60;;;;;;112211;1249;45624;-61
2023/01/15 10:06:24;;;;;;;;;35.33;28.67;24.70;36.50;;;;;;112216;1244;57174;-61
2023/01/15 10:09:18;;;;;;;;;37.00;32.00;24.70;36.50;;;;;;112195;1248;56530;-61
2023/01/15 10:14:44;;;;;;;;;34.00;30.00;24.70;36.30;;;;;;112208;1248;49343;-61
2023/01/15 10:17:26;;;;;;;;;31.00;26.50;24.70;36.30;;;;;;112240;1249;45847;-61
2023/01/15 10:19:54;;;;;;;;;31.50;28.50;24.60;36.20;;;;;;112191;1244;56126;-61
2023/01/15 10:22:31;;;;;;;;;29.50;27.50;24.60;36.20;;;;;;112128;1249;56867;-61
2023/01/15 10:25:01;;;;;;;;;33.33;28.33;24.60;36.20;;;;;;112139;1249;49212;-61
2023/01/15 10:27:32;;;;;;;;;31.67;27.00;24.60;36.10;;;;;;112197;1248;49669;-61
2023/01/15 10:30:22;;;;;;;;;31.00;28.00;24.60;36.00;;;;;;112235;1244;46077;-61
2023/01/15 10:32:54;;;;;;;;;31.00;28.50;24.60;35.80;;;;;;112221;1247;56330;-61
2023/01/15 10:35:37;;;;;;;;;27.50;26.00;24.50;36.00;;;;;;112129;1245;56696;-62
2023/01/15 10:38:25;;;;;;;;;32.00;28.67;24.50;36.00;;;;;;112198;1244;50132;-61
2023/01/15 10:40:52;;;;;;;;;27.67;25.00;24.50;35.90;;;;;;112179;1244;49340;-61
2023/01/15 10:43:35;;;;;;;;;33.50;29.00;24.50;36.00;;;;;;112157;1249;45608;-62
2023/01/15 10:46:13;;;;;;;;;31.00;28.75;24.40;35.90;;;;;;112187;1249;56994;-61
2023/01/15 10:48:43;;;;;;;;;30.75;29.00;24.40;35.70;;;;;;112196;1248;55332;-62
2023/01/15 10:51:23;;;;;;;;;28.75;26.75;24.40;35.80;;;;;;112174;1244;49174;-62
2023/01/15 10:53:53;;;;;;;;;26.00;25.00;24.40;36.00;;;;;;112101;1249;49398;-64
2023/01/15 10:56:25;;;;;;;;;30.50;26.50;24.40;36.60;;;;;;112226;1244;45739;-63
2023/01/15 10:59:12;;;;;;;;;29.50;23.25;24.50;37.30;;;;;;112212;1247;55827;-64
2023/01/15 11:01:40;;;;;;;;;24.00;20.00;24.50;38.00;;;;;;112204;1247;55629;-64
2023/01/15 11:04:08;;;;;;;;;24.00;23.00;24.50;38.20;;;;;;112128;1247;49637;-63
2023/01/15 11:06:36;;;;;;;;;26.33;23.00;24.50;38.50;;;;;;112190;1244;49903;-64
2023/01/15 11:09:04;;;;;;;;;25.50;24.50;24.60;38.50;;;;;;112235;1248;45962;-64
2023/01/15 11:20:29;;;;;;;;;28.00;25.00;24.70;39.00;;;;;;112120;1249;50483;-66
2023/01/15 11:23:08;;;;;;;;;25.00;23.75;24.70;39.20;;;;;;112181;1248;45209;-63
2023/01/15 11:25:38;;;;;;;;;27.33;23.33;24.70;39.30;;;;;;112213;1248;55813;-63
2023/01/15 11:28:07;;;;;;;;;25.00;22.00;24.70;39.30;;;;;;112190;1249;56679;-63
2023/01/15 11:30:36;;;;;;;;;24.25;23.00;24.80;39.50;;;;;;112117;1249;49310;-65
2023/01/15 11:33:05;;;;;;;;;26.00;22.00;24.70;39.60;;;;;;112192;1248;49563;-63
2023/01/15 11:35:33;;;;;;;;;27.00;26.00;24.80;39.70;;;;;;112164;1248;45979;-62
2023/01/15 11:38:13;;;;;;;;;25.00;22.00;24.80;39.80;;;;;;112156;1247;56007;-63
2023/01/15 11:40:52;;;;;;;;;26.33;23.00;24.80;40.20;;;;;;112201;1248;55670;-63
2023/01/15 11:52:12;;;;;;;;;25.33;22.00;24.90;43.60;;;;;;112342;1247;56282;-63
2023/01/15 11:54:43;;;;;;;;;24.75;22.00;24.90;44.10;;;;;;112270;1247;55323;-61
2023/01/15 11:57:11;;;;;;;;;25.00;20.75;25.00;44.10;;;;;;112290;1247;49049;-60
2023/01/15 11:59:38;;;;;;;;;27.75;25.75;25.00;43.70;;;;;;112287;1247;49764;-65
2023/01/15 12:02:17;;;;;;;;;25.75;22.00;25.00;43.80;;;;;;112313;1243;45431;-62
2023/01/15 12:04:52;;;;;;;;;22.50;21.00;25.00;44.00;;;;;;112293;1247;56154;-61
2023/01/15 12:07:23;;;;;;;;;25.33;23.00;25.00;44.20;;;;;;112308;1247;56235;-65
2023/01/15 12:11:02;;;;;;;;;19.33;17.67;25.00;44.10;;;;;;112356;1247;50472;-60
2023/01/15 12:13:08;;;;;;;;;27.00;22.67;25.00;44.20;;;;;;112343;1247;49791;-64
2023/01/15 12:15:53;;;;;;;;;22.00;20.00;25.00;43.80;;;;;;112317;1247;45742;-62
2023/01/15 12:18:38;;;;;;;;;23.67;22.00;25.10;43.90;;;;;;112249;1245;56994;-63
2023/01/15 12:21:23;;;;;;;;;29.50;25.00;25.10;42.80;;;;;;112228;1246;56120;-64
2023/01/15 12:24:18;;;;;;;;;30.00;29.00;25.10;42.20;;;;;;111757;1244;50253;-61
2023/01/15 12:27:07;;;;;;;;;29.67;25.67;25.00;41.90;;;;;;112358;1247;49944;-61
2023/01/15 12:29:45;;;;;;;;;30.00;26.75;25.00;41.50;;;;;;112353;1244;45685;-62
2023/01/15 12:32:18;;;;;;;;;25.00;23.00;24.90;41.30;;;;;;112275;1246;56441;-62
2023/01/15 12:34:49;;;;;;;;;27.75;23.00;24.90;41.20;;;;;;112418;1247;56485;-61
2023/01/15 12:37:23;;;;;;;;;25.75;24.50;24.80;41.00;;;;;;112393;1243;49038;-60
2023/01/15 12:39:58;;;;;;;;;25.50;22.75;24.80;41.20;;;;;;112267;1248;49341;-61
2023/01/15 12:45:19;;;;;;;;;26.25;23.50;24.80;41.50;;;;;;112288;1244;56409;-60
2023/01/15 12:48:11;;;;;;;;;23.50;22.00;24.80;41.50;;;;;;112314;1247;55954;-61
2023/01/15 12:50:44;;;;;;;;;25.00;20.00;24.80;41.60;;;;;;112193;1244;49567;-62
2023/01/15 12:53:33;;;;;;;;;23.00;20.33;24.80;41.80;;;;;;112341;1244;49465;-62
2023/01/15 12:56:09;;;;;;;;;21.33;20.00;24.80;41.50;;;;;;112310;1247;46123;-62
2023/01/15 12:58:41;;;;;;;;;26.25;21.50;24.80;41.60;;;;;;112325;1247;55965;-62
2023/01/15 13:01:12;;;;;;;;;19.50;18.50;24.80;41.60;;;;;;112351;1247;56120;-62
2023/01/15 13:04:13;;;;;;;;;22.00;19.00;24.80;41.60;;;;;;112328;1247;50262;-62
2023/01/15 13:06:44;;;;;;;;;21.00;19.50;24.80;41.60;;;;;;112304;1247;49928;-62
2023/01/15 13:09:23;;;;;;;;;23.33;21.00;24.90;41.60;;;;;;112337;1244;45958;-61
2023/01/15 13:11:51;;;;;;;;;26.50;24.50;24.90;42.10;;;;;;112378;1247;55744;-62
2023/01/15 13:14:20;;;;;;;;;31.67;24.67;24.80;41.50;;;;;;112241;1248;55786;-65
2023/01/15 13:16:56;;;;;;;;;35.67;31.67;24.80;41.80;;;;;;112241;1244;50207;-64
2023/01/15 13:19:37;;;;;;;;;30.33;26.33;24.80;42.20;;;;;;112315;1247;50173;-70
2023/01/15 13:22:10;;;;;;;;;42.75;31.75;24.80;42.20;;;;;;112323;1247;45913;-67
2023/01/15 13:24:59;;;;;;;;;42.75;31.25;24.80;41.70;;;;;;112138;1247;56313;-65
2023/01/15 13:27:49;;;;;;;;;41.00;31.00;24.70;41.10;;;;;;112315;1247;56450;-66
2023/01/15 13:30:42;;;;;;;;;37.50;30.50;24.70;41.00;;;;;;112306;1247;49003;-65
2023/01/15 13:33:49;;;;;;;;;32.00;28.00;24.70;41.40;;;;;;112332;1247;49400;-65
2023/01/15 13:36:28;;;;;;;;;41.25;32.50;24.70;41.60;;;;;;112089;1247;45446;-64